Time;durP1;ratioP1;P1;durP2;ratioP2;P2;SDS_P1;SDS_P2;PMS_P1;PMS_P2;Temp;Humidity;BMP_temperature;BMP_pressure;BME280_temperature;BME280_humidity;BME280_pressure;Samples;Min_cycle;Max_cycle;Signal;HPM_P1;HPM_P2
2023/06/10 03:01:27;;;;;;;15.80;14.70;;;14.00;99.90;;;;;;5503911;23;20481;-78
2023/06/10 03:03:52;;;;;;;16.73;15.43;;;14.00;99.90;;;;;;4977907;28;20188;-82
2023/06/10 03:06:18;;;;;;;15.63;14.63;;;14.00;99.90;;;;;;4978332;28;20629;-82
2023/06/10 03:08:45;;;;;;;17.13;15.77;;;13.90;99.90;;;;;;4967874;28;20290;-82
2023/06/10 03:11:11;;;;;;;17.10;16.00;;;13.90;99.90;;;;;;4967766;28;20294;-82
2023/06/10 03:13:39;;;;;;;19.30;18.10;;;13.80;99.90;;;;;;4956353;28;20196;-80
2023/06/10 03:16:06;;;;;;;24.27;22.73;;;13.80;99.90;;;;;;5012169;23;20236;-79
2023/06/10 03:18:32;;;;;;;23.97;21.97;;;13.80;99.90;;;;;;4971621;28;20192;-80
2023/06/10 03:20:58;;;;;;;24.50;22.97;;;13.80;99.90;;;;;;4981023;28;20188;-80
2023/06/10 03:23:23;;;;;;;19.70;18.40;;;13.80;99.90;;;;;;4980130;28;20205;-80
2023/06/10 03:25:49;;;;;;;23.00;21.60;;;13.90;99.90;;;;;;4965107;28;20248;-80
2023/06/10 03:28:15;;;;;;;24.33;22.80;;;13.90;99.90;;;;;;4977263;28;20196;-80
2023/06/10 03:30:41;;;;;;;24.73;23.23;;;13.90;99.90;;;;;;4960274;28;20196;-79
2023/06/10 03:33:06;;;;;;;51.93;49.10;;;13.90;99.90;;;;;;4977441;28;20252;-79
2023/06/10 03:35:32;;;;;;;51.17;48.40;;;13.90;99.90;;;;;;4977564;28;20228;-80
2023/06/10 03:37:58;;;;;;;50.47;47.50;;;13.90;99.90;;;;;;4978103;28;20189;-80
2023/06/10 03:40:24;;;;;;;33.37;31.27;;;13.80;99.90;;;;;;4959290;28;20383;-79
2023/06/10 03:42:50;;;;;;;45.80;43.23;;;13.90;99.90;;;;;;4979561;28;20421;-79
2023/06/10 03:45:16;;;;;;;32.27;30.23;;;13.90;99.90;;;;;;4980055;28;20214;-80
2023/06/10 03:47:42;;;;;;;33.93;32.07;;;13.90;99.90;;;;;;4966273;28;20217;-79
2023/06/10 03:50:09;;;;;;;33.70;31.83;;;14.00;99.90;;;;;;4982455;28;20189;-80
2023/06/10 03:52:37;;;;;;;30.67;28.93;;;14.00;99.90;;;;;;4962075;28;20209;-79
2023/06/10 03:55:03;;;;;;;30.53;28.80;;;14.00;99.90;;;;;;4978900;28;20205;-80
2023/06/10 03:57:29;;;;;;;40.10;37.50;;;14.10;99.90;;;;;;4953733;28;20513;-80
2023/06/10 03:59:56;;;;;;;36.43;34.43;;;14.10;99.90;;;;;;4961148;28;20205;-79
2023/06/10 04:02:22;;;;;;;79.17;74.83;;;14.20;99.90;;;;;;4960855;28;20193;-78
2023/06/10 04:04:48;;;;;;;83.73;79.20;;;14.20;99.90;;;;;;4978906;28;20219;-78
2023/06/10 04:07:14;;;;;;;65.97;62.30;;;14.30;99.90;;;;;;4984595;28;20192;-78
2023/06/10 04:09:40;;;;;;;51.73;48.83;;;14.30;99.90;;;;;;4985626;28;20624;-77
2023/06/10 04:12:08;;;;;;;67.77;64.20;;;14.30;99.90;;;;;;4978069;28;20630;-78
2023/06/10 04:14:36;;;;;;;52.43;49.53;;;14.40;99.90;;;;;;4928934;28;1102350;-80
2023/06/10 04:17:02;;;;;;;89.07;84.37;;;14.50;99.90;;;;;;4967101;28;20288;-78
2023/06/10 04:19:28;;;;;;;115.27;109.20;;;14.50;99.90;;;;;;4967859;28;20610;-78
2023/06/10 04:21:54;;;;;;;121.30;115.03;;;14.60;99.90;;;;;;4983280;28;20189;-78
2023/06/10 04:24:19;;;;;;;53.80;50.47;;;14.70;99.90;;;;;;4965578;28;20264;-79
2023/06/10 04:26:46;;;;;;;28.47;26.57;;;14.80;99.90;;;;;;4965235;28;20188;-78
2023/06/10 04:29:11;;;;;;;39.23;37.00;;;15.00;99.90;;;;;;4964037;28;20564;-79
2023/06/10 04:31:37;;;;;;;58.40;55.00;;;15.10;99.90;;;;;;4981896;28;20213;-79
2023/06/10 04:34:03;;;;;;;78.97;74.60;;;15.20;99.90;;;;;;4963773;28;20271;-79
2023/06/10 04:36:29;;;;;;;77.80;73.77;;;15.30;99.90;;;;;;4963997;28;20188;-78
2023/06/10 04:38:55;;;;;;;80.17;76.00;;;15.30;99.90;;;;;;4962962;28;20204;-78
2023/06/10 04:41:22;;;;;;;99.70;94.47;;;15.40;99.90;;;;;;4963808;28;20197;-78
2023/06/10 04:43:48;;;;;;;115.03;109.27;;;15.50;99.90;;;;;;4963239;28;20732;-79
2023/06/10 04:46:13;;;;;;;127.37;120.80;;;15.70;99.90;;;;;;4974857;28;20218;-78
2023/06/10 04:48:40;;;;;;;36.23;34.03;;;15.80;99.90;;;;;;4961453;28;20677;-78
2023/06/10 04:51:05;;;;;;;14.70;13.67;;;16.00;99.90;;;;;;4962976;28;20213;-78
2023/06/10 04:53:31;;;;;;;9.90;9.20;;;16.20;99.90;;;;;;4963010;28;20189;-78
2023/06/10 04:55:57;;;;;;;25.80;24.37;;;16.30;99.90;;;;;;4958661;28;20585;-78
2023/06/10 04:58:23;;;;;;;98.47;93.43;;;16.60;99.90;;;;;;4965182;28;20446;-78
2023/06/10 05:00:49;;;;;;;113.67;107.87;;;16.80;99.90;;;;;;4983365;28;20185;-78
2023/06/10 05:03:15;;;;;;;19.50;18.30;;;17.10;99.90;;;;;;4971112;28;20185;-77
2023/06/10 05:05:41;;;;;;;10.70;9.85;;;17.40;99.90;;;;;;4992256;28;20304;-80
2023/06/10 05:08:07;;;;;;;17.70;16.50;;;18.00;99.90;;;;;;4987759;28;20204;-80
2023/06/10 05:10:34;;;;;;;22.20;20.90;;;18.70;99.90;;;;;;4967343;28;20196;-80
2023/06/10 05:13:00;;;;;;;19.38;18.02;;;19.50;99.90;;;;;;4966377;28;20185;-79
2023/06/10 05:15:26;;;;;;;16.40;15.48;;;20.20;99.90;;;;;;4984887;28;20622;-80
2023/06/10 05:17:51;;;;;;;13.93;12.80;;;20.90;99.90;;;;;;4974116;28;20204;-78
2023/06/10 05:20:18;;;;;;;14.98;13.88;;;21.50;99.90;;;;;;4981902;28;20601;-81
2023/06/10 05:22:44;;;;;;;14.32;13.27;;;22.10;99.90;;;;;;4965873;28;20300;-78
2023/06/10 05:25:10;;;;;;;12.93;10.00;;;22.40;99.90;;;;;;4964785;28;20212;-77
2023/06/10 05:27:36;;;;;;;9.63;8.70;;;22.80;99.90;;;;;;4982518;28;20189;-78
2023/06/10 05:30:03;;;;;;;19.13;17.83;;;23.20;99.90;;;;;;4982907;28;20193;-79
2023/06/10 05:32:29;;;;;;;13.40;12.52;;;23.50;99.90;;;;;;4982963;28;20223;-80
2023/06/10 05:34:54;;;;;;;8.88;8.27;;;23.80;99.90;;;;;;4962051;28;20233;-80
2023/06/10 05:37:20;;;;;;;11.02;9.15;;;23.90;99.90;;;;;;4977912;28;20181;-80
2023/06/10 05:39:46;;;;;;;11.02;10.13;;;24.30;99.90;;;;;;4981733;28;20594;-80
2023/06/10 05:42:11;;;;;;;18.05;16.98;;;24.50;99.90;;;;;;4981387;28;20641;-80
2023/06/10 05:44:37;;;;;;;11.27;10.45;;;24.90;99.90;;;;;;4963637;28;20216;-80
2023/06/10 05:47:03;;;;;;;7.82;7.22;;;25.00;99.90;;;;;;4976011;28;20666;-80
2023/06/10 05:49:29;;;;;;;7.38;6.85;;;25.20;99.90;;;;;;4977939;28;20188;-80
2023/06/10 05:51:57;;;;;;;9.15;8.55;;;25.50;99.90;;;;;;4988225;28;20730;-78
2023/06/10 05:54:23;;;;;;;12.02;11.20;;;25.80;99.90;;;;;;4985235;28;20802;-80
2023/06/10 05:56:48;;;;;;;16.75;15.80;;;25.90;99.90;;;;;;4985129;28;20256;-80
2023/06/10 05:59:14;;;;;;;22.35;21.15;;;26.10;99.90;;;;;;4965132;28;20189;-81
2023/06/10 06:01:40;;;;;;;20.50;19.40;;;26.10;99.60;;;;;;4983910;28;20216;-78
2023/06/10 06:04:06;;;;;;;21.73;20.58;;;26.30;99.20;;;;;;4985550;28;20204;-80
2023/06/10 06:06:31;;;;;;;18.80;17.77;;;26.60;98.30;;;;;;4965859;28;20197;-81
2023/06/10 06:08:57;;;;;;;13.45;12.75;;;26.90;97.20;;;;;;4965213;28;20185;-79
2023/06/10 06:11:24;;;;;;;11.70;10.80;;;27.00;97.10;;;;;;4981991;28;20209;-79
2023/06/10 06:13:50;;;;;;;9.93;9.32;;;27.00;96.30;;;;;;4964950;28;20200;-80
2023/06/10 06:16:16;;;;;;;9.45;8.95;;;26.70;96.20;;;;;;4964111;28;20233;-81
2023/06/10 06:18:42;;;;;;;8.65;8.15;;;26.70;96.20;;;;;;4963142;28;20193;-81
2023/06/10 06:21:08;;;;;;;9.15;8.60;;;26.90;96.10;;;;;;4963517;28;20189;-79
2023/06/10 06:23:34;;;;;;;8.75;8.25;;;27.20;95.90;;;;;;4979749;28;20220;-80
2023/06/10 06:25:59;;;;;;;10.88;10.18;;;27.40;95.00;;;;;;4957389;28;20224;-80
2023/06/10 06:28:28;;;;;;;7.18;6.68;;;27.60;95.00;;;;;;4980364;28;20216;-81
2023/06/10 06:30:55;;;;;;;6.45;5.95;;;27.80;94.60;;;;;;4972292;28;20216;-80
2023/06/10 06:33:21;;;;;;;6.72;6.32;;;27.90;93.60;;;;;;4962097;28;20200;-80
2023/06/10 06:35:47;;;;;;;6.90;6.10;;;27.60;94.00;;;;;;4962738;28;20259;-81
2023/06/10 06:38:13;;;;;;;6.80;6.30;;;27.90;93.50;;;;;;4980462;28;20188;-79
2023/06/10 06:40:38;;;;;;;8.75;8.25;;;28.20;93.00;;;;;;4963911;28;20181;-79
2023/06/10 06:43:04;;;;;;;8.48;7.90;;;28.60;92.40;;;;;;4982711;28;20204;-81
2023/06/10 06:45:30;;;;;;;7.28;6.78;;;28.60;92.10;;;;;;4965529;28;20205;-81
2023/06/10 06:47:56;;;;;;;6.38;5.97;;;28.30;91.80;;;;;;4963008;28;20247;-81
2023/06/10 06:50:22;;;;;;;6.72;6.22;;;27.90;92.60;;;;;;4963553;28;20672;-81
2023/06/10 06:52:48;;;;;;;7.80;7.30;;;28.00;92.50;;;;;;4980646;28;20220;-81
2023/06/10 06:55:13;;;;;;;7.20;6.78;;;28.30;91.80;;;;;;4981864;28;20294;-81
2023/06/10 06:57:39;;;;;;;6.40;5.80;;;28.60;91.40;;;;;;4982836;28;20612;-78
2023/06/10 07:00:07;;;;;;;7.15;6.43;;;28.60;90.90;;;;;;4968084;28;20541;-80
2023/06/10 07:02:33;;;;;;;8.13;7.57;;;28.60;91.10;;;;;;4966731;28;20340;-80
2023/06/10 07:04:59;;;;;;;8.05;7.55;;;28.40;90.90;;;;;;4966356;28;20219;-79
2023/06/10 07:07:25;;;;;;;7.97;7.38;;;28.20;91.20;;;;;;4966872;28;20196;-80
2023/06/10 07:09:50;;;;;;;8.15;7.55;;;28.60;90.90;;;;;;4986189;28;20192;-80
2023/06/10 07:12:17;;;;;;;6.78;6.40;;;28.90;90.50;;;;;;4967475;28;20252;-80
2023/06/10 07:14:43;;;;;;;6.68;6.28;;;28.80;90.30;;;;;;4966266;28;20364;-81
2023/06/10 07:17:09;;;;;;;7.78;7.28;;;28.90;89.60;;;;;;4984266;28;20184;-81
2023/06/10 07:19:35;;;;;;;7.63;7.22;;;29.20;88.30;;;;;;4982674;28;20185;-81
2023/06/10 07:22:00;;;;;;;8.57;8.07;;;29.30;87.90;;;;;;4965090;28;20195;-81
2023/06/10 07:24:26;;;;;;;8.75;8.25;;;29.40;86.70;;;;;;4965223;28;20581;-81
2023/06/10 07:26:52;;;;;;;11.43;10.63;;;29.40;86.50;;;;;;4982484;28;20185;-81
2023/06/10 07:29:17;;;;;;;15.82;15.00;;;29.90;85.40;;;;;;4964881;28;20189;-81
2023/06/10 07:31:43;;;;;;;9.32;8.77;;;30.20;85.60;;;;;;4956416;28;20214;-81
2023/06/10 07:34:09;;;;;;;5.78;5.40;;;30.60;83.20;;;;;;4964380;28;20181;-80
2023/06/10 07:36:36;;;;;;;6.65;6.30;;;30.40;82.30;;;;;;4964688;28;20185;-80
2023/06/10 07:39:02;;;;;;;7.28;6.88;;;30.20;83.20;;;;;;4963875;28;20185;-80
2023/06/10 07:41:28;;;;;;;6.45;6.10;;;30.60;82.40;;;;;;4965459;28;20204;-80
2023/06/10 07:43:56;;;;;;;6.50;6.15;;;30.40;81.40;;;;;;4968929;28;20188;-79
2023/06/10 07:46:24;;;;;;;7.80;6.50;;;30.20;82.00;;;;;;4972757;28;20240;-80
2023/06/10 07:48:50;;;;;;;8.93;8.38;;;29.60;83.10;;;;;;4994940;28;20196;-81
2023/06/10 07:51:16;;;;;;;14.77;13.98;;;28.60;84.40;;;;;;4992364;28;20205;-79
2023/06/10 07:53:42;;;;;;;13.80;12.98;;;28.80;84.90;;;;;;4976587;28;20586;-80
2023/06/10 07:56:08;;;;;;;13.60;12.90;;;29.00;85.10;;;;;;4970420;28;20240;-80
2023/06/10 07:58:34;;;;;;;8.75;8.25;;;29.40;85.10;;;;;;4971910;28;20189;-81
2023/06/10 08:01:00;;;;;;;7.78;7.38;;;29.90;82.20;;;;;;4989542;28;20287;-81
2023/06/10 08:03:25;;;;;;;7.13;6.65;;;30.00;81.60;;;;;;4969512;28;20208;-80
2023/06/10 08:05:51;;;;;;;5.80;5.50;;;30.30;81.50;;;;;;4986517;28;20212;-80
2023/06/10 08:08:17;;;;;;;6.72;6.32;;;30.60;79.50;;;;;;4985785;28;20220;-82
2023/06/10 08:10:43;;;;;;;6.00;5.60;;;30.60;79.60;;;;;;4968979;28;20217;-82
2023/06/10 08:13:09;;;;;;;6.30;6.00;;;30.40;79.40;;;;;;4969880;28;20185;-82
2023/06/10 08:15:34;;;;;;;6.13;5.72;;;30.60;80.70;;;;;;4978196;28;20228;-82
2023/06/10 08:18:00;;;;;;;7.40;6.57;;;30.90;78.50;;;;;;4975920;28;20231;-82
2023/06/10 08:20:26;;;;;;;7.00;6.47;;;30.70;77.40;;;;;;4986194;28;20225;-81
2023/06/10 08:22:52;;;;;;;7.55;7.03;;;30.30;77.30;;;;;;4986728;28;20200;-81
2023/06/10 08:25:18;;;;;;;8.10;7.60;;;29.50;77.80;;;;;;4985846;28;20216;-81
2023/06/10 08:27:44;;;;;;;8.68;8.25;;;28.90;81.50;;;;;;4976333;28;20689;-82
2023/06/10 08:30:10;;;;;;;10.50;9.80;;;28.90;80.10;;;;;;4967076;28;20207;-81
2023/06/10 08:32:36;;;;;;;9.85;9.30;;;28.80;80.30;;;;;;4966285;28;20303;-81
2023/06/10 08:35:03;;;;;;;7.35;6.85;;;28.60;82.20;;;;;;4966490;28;20685;-81
2023/06/10 08:37:29;;;;;;;7.57;7.18;;;28.40;82.40;;;;;;4975095;28;20741;-81
2023/06/10 08:39:55;;;;;;;9.63;9.05;;;28.70;82.20;;;;;;4966412;28;20188;-80
2023/06/10 08:42:33;;;;;;;11.48;10.88;;;29.00;80.40;;;;;;4983819;28;20204;-80
2023/06/10 08:45:02;;;;;;;10.40;9.65;;;28.80;80.50;;;;;;4971640;28;20212;-80
2023/06/10 08:47:31;;;;;;;7.10;6.40;;;28.70;81.50;;;;;;4975324;28;20181;-80
2023/06/10 08:50:03;;;;;;;8.05;7.55;;;28.40;81.50;;;;;;4978768;28;20192;-81
2023/06/10 08:52:34;;;;;;;7.80;7.05;;;28.60;81.70;;;;;;4968406;28;20212;-80
2023/06/10 08:55:05;;;;;;;7.35;6.88;;;28.90;81.40;;;;;;4968319;28;20688;-82
2023/06/10 08:57:31;;;;;;;6.75;6.25;;;29.10;80.80;;;;;;4968036;28;20200;-81
2023/06/10 08:59:57;;;;;;;7.55;7.03;;;29.00;80.90;;;;;;4985191;28;20177;-82
2023/06/10 09:02:28;;;;;;;7.50;7.00;;;28.90;80.30;;;;;;4984696;28;20619;-82
2023/06/10 09:04:56;;;;;;;8.38;7.88;;;28.50;81.60;;;;;;4984618;28;20213;-82
2023/06/10 09:07:23;;;;;;;7.10;6.70;;;28.20;81.90;;;;;;4967110;28;20195;-82
2023/06/10 09:09:49;;;;;;;6.53;6.05;;;27.80;82.00;;;;;;4966942;28;20192;-82
2023/06/10 09:12:15;;;;;;;9.85;9.18;;;27.30;83.10;;;;;;4985822;28;20232;-82
2023/06/10 09:14:44;;;;;;;11.38;10.48;;;27.10;83.90;;;;;;4966716;28;20420;-81
2023/06/10 09:17:11;;;;;;;11.23;10.52;;;27.40;83.70;;;;;;4977493;28;20664;-81
2023/06/10 09:19:39;;;;;;;10.82;10.02;;;27.50;83.70;;;;;;4960872;28;20203;-80
2023/06/10 09:22:05;;;;;;;6.85;6.35;;;27.80;83.30;;;;;;4960515;28;20216;-80
2023/06/10 09:24:32;;;;;;;5.65;5.35;;;28.30;81.70;;;;;;4981946;28;20268;-78
2023/06/10 09:27:06;;;;;;;6.45;6.05;;;28.40;79.80;;;;;;4977246;28;20189;-80
2023/06/10 09:29:50;;;;;;;6.40;5.90;;;28.30;80.00;;;;;;4959304;28;20201;-80
2023/06/10 09:32:18;;;;;;;6.20;5.65;;;28.00;81.10;;;;;;4970346;28;20216;-82
2023/06/10 09:34:44;;;;;;;7.00;6.60;;;28.50;80.10;;;;;;4978895;28;20232;-78
2023/06/10 09:37:12;;;;;;;7.25;6.82;;;29.10;79.70;;;;;;4966374;28;20247;-78
2023/06/10 09:39:38;;;;;;;6.70;6.30;;;28.40;79.50;;;;;;4965794;28;20185;-82
2023/06/10 09:42:18;;;;;;;7.57;7.07;;;28.10;80.00;;;;;;4964218;28;20204;-78
2023/06/10 09:44:51;;;;;;;6.78;6.22;;;29.00;79.70;;;;;;4985533;28;20267;-79
2023/06/10 09:47:23;;;;;;;7.57;7.18;;;30.10;76.30;;;;;;4971852;28;20203;-80
2023/06/10 09:49:50;;;;;;;9.15;8.65;;;30.10;75.70;;;;;;4977544;28;20193;-80
2023/06/10 09:52:26;;;;;;;7.13;6.55;;;29.80;75.20;;;;;;4960665;28;20232;-80
2023/06/10 09:54:53;;;;;;;7.28;6.68;;;30.10;71.90;;;;;;4976807;28;20223;-79
2023/06/10 09:57:20;;;;;;;7.65;6.93;;;30.00;73.50;;;;;;4976863;28;20606;-80
2023/06/10 09:59:47;;;;;;;7.10;6.50;;;30.10;73.70;;;;;;4976832;28;20568;-79
2023/06/10 10:02:16;;;;;;;8.30;7.82;;;30.60;73.00;;;;;;4959245;28;20189;-80
2023/06/10 10:04:43;;;;;;;6.75;6.35;;;30.70;71.70;;;;;;4950831;28;20209;-81
2023/06/10 10:07:10;;;;;;;8.45;7.65;;;30.90;70.00;;;;;;4962727;28;20216;-81
2023/06/10 10:09:40;;;;;;;6.63;6.22;;;31.00;70.40;;;;;;4980511;28;20192;-81
2023/06/10 10:12:11;;;;;;;9.43;8.82;;;30.50;71.10;;;;;;4977478;28;20224;-81
2023/06/10 10:14:38;;;;;;;7.18;6.70;;;31.10;70.40;;;;;;4976288;28;20217;-80
2023/06/10 10:17:11;;;;;;;6.82;6.40;;;31.60;67.80;;;;;;4958723;28;20188;-81
2023/06/10 10:19:47;;;;;;;9.52;8.95;;;31.50;68.80;;;;;;4980140;28;20198;-80
2023/06/10 10:22:24;;;;;;;13.43;12.73;;;32.30;66.60;;;;;;4979913;28;20203;-80
2023/06/10 10:24:52;;;;;;;12.77;11.98;;;32.30;66.20;;;;;;4984279;28;20217;-79
2023/06/10 10:27:42;;;;;;;10.30;9.70;;;32.20;65.70;;;;;;4984524;28;20195;-81
2023/06/10 10:30:11;;;;;;;15.05;14.25;;;31.60;64.70;;;;;;4991202;28;20201;-80
2023/06/10 10:33:01;;;;;;;15.88;14.88;;;31.50;65.80;;;;;;4959401;28;20303;-80
2023/06/10 10:35:27;;;;;;;10.07;9.35;;;32.40;65.00;;;;;;4962798;28;20568;-79
2023/06/10 10:37:54;;;;;;;15.57;14.45;;;32.70;63.40;;;;;;4990170;28;20204;-79
2023/06/10 10:40:25;;;;;;;37.83;35.83;;;33.20;63.10;;;;;;4973942;28;20251;-78
2023/06/10 10:42:52;;;;;;;33.42;31.67;;;33.40;62.30;;;;;;4963864;28;20201;-80
2023/06/10 10:45:19;;;;;;;9.20;8.50;;;32.60;62.80;;;;;;4959503;28;20590;-80
2023/06/10 10:47:46;;;;;;;11.38;10.73;;;31.20;65.30;;;;;;4976630;28;20228;-80
2023/06/10 10:50:16;;;;;;;9.85;9.13;;;30.80;67.10;;;;;;4959718;28;20189;-80
2023/06/10 10:52:58;;;;;;;7.88;7.25;;;31.00;65.90;;;;;;4976240;28;20220;-80
2023/06/10 10:55:25;;;;;;;8.88;8.27;;;31.50;66.80;;;;;;4975795;28;20208;-80
2023/06/10 10:58:16;;;;;;;13.75;13.05;;;32.40;63.40;;;;;;4975906;28;20196;-81
2023/06/10 11:00:45;;;;;;;12.75;12.02;;;32.40;63.40;;;;;;4958525;28;20196;-82
2023/06/10 11:03:17;;;;;;;14.82;13.93;;;31.80;64.70;;;;;;4961726;28;20212;-81
2023/06/10 11:05:48;;;;;;;9.48;8.95;;;32.10;64.40;;;;;;4978205;28;20239;-82
2023/06/10 11:08:34;;;;;;;15.50;14.70;;;32.10;63.50;;;;;;4976170;28;20252;-79
2023/06/10 11:11:00;;;;;;;18.40;17.25;;;32.60;63.10;;;;;;4942628;28;20197;-80
2023/06/10 11:13:27;;;;;;;14.80;13.80;;;32.70;61.80;;;;;;4975800;28;20370;-81
2023/06/10 11:15:58;;;;;;;10.55;9.85;;;31.90;63.70;;;;;;4980106;28;20228;-80
2023/06/10 11:18:25;;;;;;;8.15;7.65;;;31.10;64.70;;;;;;4979790;28;20196;-82
2023/06/10 11:21:04;;;;;;;6.90;6.50;;;30.70;65.30;;;;;;4979975;28;20220;-79
2023/06/10 11:23:33;;;;;;;7.30;6.90;;;30.50;67.10;;;;;;4980290;28;20193;-82
2023/06/10 11:26:13;;;;;;;8.98;8.48;;;30.90;66.00;;;;;;4980625;28;20208;-80
2023/06/10 11:28:40;;;;;;;7.38;6.88;;;32.10;63.30;;;;;;4979212;28;20637;-82
2023/06/10 11:31:07;;;;;;;8.50;7.90;;;31.50;63.20;;;;;;4961808;28;20216;-80
2023/06/10 11:33:33;;;;;;;8.75;8.15;;;31.00;63.70;;;;;;4961800;28;20185;-80
2023/06/10 11:35:58;;;;;;;5.80;5.40;;;30.70;63.40;;;;;;4978627;28;20204;-80
2023/06/10 11:38:24;;;;;;;7.55;6.93;;;30.20;64.30;;;;;;4960363;28;20243;-80
2023/06/10 11:40:51;;;;;;;7.82;7.22;;;29.60;65.10;;;;;;4945258;28;20185;-81
2023/06/10 11:43:20;;;;;;;7.65;7.20;;;29.80;67.40;;;;;;4981147;28;20765;-81
2023/06/10 11:45:46;;;;;;;9.63;9.07;;;31.20;64.20;;;;;;4980602;28;20224;-81
2023/06/10 11:48:15;;;;;;;9.07;8.18;;;32.50;61.80;;;;;;4979541;28;20197;-81
2023/06/10 11:50:41;;;;;;;24.10;22.85;;;33.50;59.80;;;;;;4978170;28;20247;-80
2023/06/10 11:53:08;;;;;;;25.52;24.27;;;33.00;59.60;;;;;;4977567;28;20220;-81
2023/06/10 11:55:50;;;;;;;19.10;18.05;;;32.40;60.60;;;;;;4977091;28;20704;-80
2023/06/10 11:58:21;;;;;;;16.77;15.88;;;31.90;60.60;;;;;;4978260;28;20188;-80
2023/06/10 12:01:01;;;;;;;26.27;24.90;;;32.60;59.90;;;;;;4972243;28;20251;-80
2023/06/10 12:03:35;;;;;;;36.45;34.70;;;33.10;59.60;;;;;;4971834;28;20185;-79
2023/06/10 12:06:03;;;;;;;30.70;29.00;;;32.70;57.80;;;;;;4973692;28;20232;-81
2023/06/10 12:08:30;;;;;;;26.00;24.63;;;31.90;59.50;;;;;;4995135;28;20201;-81
2023/06/10 12:10:57;;;;;;;35.20;33.33;;;32.40;60.20;;;;;;4980087;28;20205;-81
2023/06/10 12:13:26;;;;;;;30.95;29.25;;;33.40;58.50;;;;;;4972006;28;20185;-81
2023/06/10 12:15:52;;;;;;;28.58;27.08;;;33.50;57.70;;;;;;4982659;28;20220;-80
2023/06/10 12:18:24;;;;;;;5.80;5.50;;;34.00;57.10;;;;;;4986994;28;20257;-82
2023/06/10 12:20:51;;;;;;;6.45;6.13;;;34.60;55.10;;;;;;4986486;28;20193;-82
2023/06/10 12:23:18;;;;;;;6.28;5.75;;;34.50;56.30;;;;;;4966274;28;20216;-81
2023/06/10 12:25:51;;;;;;;6.40;5.90;;;34.80;54.70;;;;;;4989075;28;20692;-82
2023/06/10 12:28:20;;;;;;;6.85;6.40;;;35.40;55.70;;;;;;4962630;28;20559;-82
2023/06/10 12:30:46;;;;;;;6.45;6.05;;;35.90;53.80;;;;;;4964283;28;20590;-82
2023/06/10 12:33:21;;;;;;;6.72;6.22;;;35.10;54.50;;;;;;4956127;29;20189;-82
2023/06/10 12:35:49;;;;;;;5.85;5.45;;;34.90;54.80;;;;;;4961594;28;20212;-81
2023/06/10 12:38:24;;;;;;;5.95;5.55;;;34.40;55.40;;;;;;4978744;28;20500;-81
2023/06/10 12:40:51;;;;;;;11.25;10.65;;;33.60;55.40;;;;;;4981841;28;20354;-81
2023/06/10 12:43:23;;;;;;;12.90;12.25;;;32.80;56.30;;;;;;4984176;28;20185;-81
2023/06/10 12:45:49;;;;;;;6.97;6.68;;;33.50;56.80;;;;;;4959163;28;20205;-82
2023/06/10 12:48:20;;;;;;;6.40;6.05;;;34.50;55.00;;;;;;4992215;28;20212;-78
2023/06/10 12:50:54;;;;;;;7.53;7.13;;;35.90;54.10;;;;;;4991464;28;20205;-81
2023/06/10 12:53:20;;;;;;;5.38;4.97;;;36.00;51.90;;;;;;4979522;28;20695;-81
2023/06/10 12:55:47;;;;;;;12.38;11.77;;;33.70;55.00;;;;;;4961664;28;20218;-81
2023/06/10 12:58:13;;;;;;;29.83;28.33;;;32.10;57.30;;;;;;4978270;28;20189;-81
2023/06/10 13:00:39;;;;;;;18.50;17.60;;;32.50;57.40;;;;;;4962023;28;20208;-82
2023/06/10 13:03:06;;;;;;;6.43;6.10;;;33.70;56.60;;;;;;4962151;28;20197;-80
2023/06/10 13:05:32;;;;;;;7.30;6.90;;;34.50;53.50;;;;;;4978082;28;20227;-80
2023/06/10 13:07:59;;;;;;;5.32;5.03;;;34.20;54.30;;;;;;4978060;28;20192;-80
2023/06/10 13:10:25;;;;;;;5.15;4.90;;;34.00;55.10;;;;;;4986059;28;20673;-80
2023/06/10 13:12:52;;;;;;;6.28;5.93;;;34.50;54.40;;;;;;4971900;28;20213;-78
2023/06/10 13:15:18;;;;;;;6.10;5.65;;;35.00;53.70;;;;;;4970419;28;20221;-80
2023/06/10 13:17:46;;;;;;;6.28;5.90;;;35.10;53.50;;;;;;4960829;28;20203;-79
2023/06/10 13:20:12;;;;;;;6.60;6.10;;;35.70;53.20;;;;;;4978547;28;20215;-82
2023/06/10 13:22:38;;;;;;;9.32;8.85;;;35.70;52.50;;;;;;4960625;28;20189;-82
2023/06/10 13:25:04;;;;;;;7.90;7.28;;;35.80;52.10;;;;;;4956155;28;20217;-81
2023/06/10 13:27:30;;;;;;;13.32;12.63;;;35.40;52.80;;;;;;4957646;28;20193;-81
2023/06/10 13:29:56;;;;;;;59.20;56.40;;;36.20;52.00;;;;;;4960644;28;20181;-82
2023/06/10 13:32:22;;;;;;;19.00;18.05;;;37.20;50.40;;;;;;4960670;28;20217;-81
2023/06/10 13:34:49;;;;;;;13.68;12.77;;;38.20;48.60;;;;;;4960124;28;20632;-81
2023/06/10 13:37:17;;;;;;;32.20;30.60;;;38.60;48.00;;;;;;4977146;28;20189;-81
2023/06/10 13:39:43;;;;;;;58.13;55.38;;;37.70;48.40;;;;;;4951924;28;20193;-81
2023/06/10 13:42:08;;;;;;;42.47;40.25;;;36.40;50.00;;;;;;4975023;28;20188;-79
2023/06/10 13:44:36;;;;;;;25.02;23.75;;;35.50;51.00;;;;;;4978175;28;20285;-80
2023/06/10 13:47:05;;;;;;;15.95;15.15;;;35.10;51.20;;;;;;4985846;28;20240;-81
2023/06/10 13:49:31;;;;;;;34.33;32.58;;;34.90;52.20;;;;;;4977547;28;20192;-81
2023/06/10 13:51:56;;;;;;;42.28;40.17;;;36.10;50.70;;;;;;4957654;28;20214;-81
2023/06/10 13:54:23;;;;;;;22.65;21.45;;;36.80;50.00;;;;;;4973620;28;20205;-81
2023/06/10 13:56:48;;;;;;;35.63;33.67;;;36.60;48.30;;;;;;4961005;28;20192;-81
2023/06/10 13:59:14;;;;;;;40.97;38.80;;;36.40;49.50;;;;;;4978635;28;20181;-81
2023/06/10 14:01:40;;;;;;;44.90;42.60;;;36.00;50.20;;;;;;4961188;28;20200;-81
2023/06/10 14:04:07;;;;;;;36.80;34.95;;;36.30;50.70;;;;;;4977394;28;20184;-81
2023/06/10 14:06:33;;;;;;;33.10;31.52;;;36.70;49.50;;;;;;4976824;28;20225;-81
2023/06/10 14:09:00;;;;;;;7.18;6.57;;;34.80;51.50;;;;;;4959311;28;20223;-80
2023/06/10 14:11:26;;;;;;;7.68;7.22;;;32.80;54.80;;;;;;4959734;28;20283;-80
2023/06/10 14:13:51;;;;;;;21.63;20.48;;;31.80;56.60;;;;;;4976926;28;20506;-80
2023/06/10 14:16:17;;;;;;;30.13;28.42;;;31.30;57.30;;;;;;4952736;28;20228;-80
2023/06/10 14:18:43;;;;;;;9.73;6.93;;;30.60;58.30;;;;;;4981295;28;20601;-80
2023/06/10 14:21:09;;;;;;;7.13;6.63;;;30.40;59.00;;;;;;4959672;28;20256;-81
2023/06/10 14:23:35;;;;;;;11.15;10.30;;;31.30;57.90;;;;;;4976250;28;20271;-81
2023/06/10 14:26:02;;;;;;;22.98;21.83;;;31.90;56.20;;;;;;4976189;28;20212;-81
2023/06/10 14:28:28;;;;;;;35.83;34.00;;;32.40;55.70;;;;;;4957973;28;20185;-81
2023/06/10 14:30:54;;;;;;;31.92;30.23;;;33.00;55.10;;;;;;4975935;28;20646;-79
2023/06/10 14:33:20;;;;;;;26.65;25.27;;;33.30;54.50;;;;;;4976693;28;20213;-79
2023/06/10 14:35:46;;;;;;;31.05;29.50;;;32.80;55.10;;;;;;4976241;28;20287;-81
2023/06/10 14:38:12;;;;;;;16.83;16.02;;;33.30;55.00;;;;;;4975747;28;20363;-81
2023/06/10 14:40:37;;;;;;;9.02;8.52;;;33.90;54.10;;;;;;4957967;28;20192;-81
2023/06/10 14:43:09;;;;;;;10.45;9.82;;;33.90;53.50;;;;;;4975806;28;20189;-81
2023/06/10 14:45:38;;;;;;;5.68;5.38;;;34.30;54.00;;;;;;4975532;28;20263;-80
2023/06/10 14:48:05;;;;;;;6.32;5.93;;;34.90;51.80;;;;;;4974992;28;20197;-80
2023/06/10 14:50:32;;;;;;;6.45;6.05;;;33.40;52.70;;;;;;4957886;28;20203;-80
2023/06/10 14:53:01;;;;;;;6.90;6.40;;;33.40;54.10;;;;;;4975771;28;20224;-80
2023/06/10 14:55:27;;;;;;;6.32;6.03;;;33.90;52.10;;;;;;4982749;28;20267;-79
2023/06/10 14:57:53;;;;;;;7.43;6.93;;;34.30;51.30;;;;;;4983965;28;20185;-79
2023/06/10 15:00:23;;;;;;;6.10;5.80;;;34.70;50.50;;;;;;4965126;28;20189;-80
2023/06/10 15:02:50;;;;;;;7.13;6.72;;;34.60;50.60;;;;;;4980639;28;20247;-79
2023/06/10 15:05:16;;;;;;;7.28;6.68;;;34.40;50.80;;;;;;4983056;28;20736;-80
2023/06/10 15:07:43;;;;;;;6.78;6.45;;;34.50;51.50;;;;;;4956944;28;20193;-80
2023/06/10 15:10:09;;;;;;;6.43;6.13;;;34.70;51.00;;;;;;4970697;28;20185;-81
2023/06/10 15:12:35;;;;;;;8.00;7.40;;;34.80;50.70;;;;;;4981708;28;20280;-79
2023/06/10 15:15:02;;;;;;;7.95;7.55;;;34.80;50.40;;;;;;4994915;23;20232;-80
2023/06/10 15:17:28;;;;;;;7.88;7.47;;;34.80;51.20;;;;;;4974877;28;20222;-79
2023/06/10 15:19:53;;;;;;;5.90;5.60;;;35.30;50.00;;;;;;4989332;28;20220;-81
2023/06/10 15:22:19;;;;;;;8.20;7.70;;;34.80;51.80;;;;;;4973135;28;20192;-80
2023/06/10 15:24:45;;;;;;;9.70;9.07;;;35.20;50.60;;;;;;4975417;28;20261;-80
2023/06/10 15:27:11;;;;;;;33.88;31.98;;;35.50;50.30;;;;;;4967533;28;20696;-79
2023/06/10 15:29:36;;;;;;;40.40;38.40;;;35.90;49.20;;;;;;4963584;28;20193;-79
2023/06/10 15:32:02;;;;;;;22.02;20.98;;;35.90;47.70;;;;;;4976099;28;20228;-79
2023/06/10 15:34:28;;;;;;;16.00;15.25;;;34.60;48.70;;;;;;4977109;28;20601;-80
2023/06/10 15:36:54;;;;;;;7.70;5.13;;;34.30;48.70;;;;;;4958615;28;20673;-80
2023/06/10 15:39:19;;;;;;;7.32;7.03;;;34.10;49.70;;;;;;4975848;28;20192;-82